Time;durP1;ratioP1;P1;durP2;ratioP2;P2;SDS_P1;SDS_P2;PMS_P1;PMS_P2;Temp;Humidity;BMP_temperature;BMP_pressure;BME280_temperature;BME280_humidity;BME280_pressure;Samples;Min_cycle;Max_cycle;Signal;HPM_P1;HPM_P2
2020/12/24 00:01:42;;;;;;;6.07;1.87;;;8.80;99.90;;;;;;4991986;28;20669;-64
2020/12/24 00:04:08;;;;;;;4.90;2.10;;;8.70;99.90;;;;;;5007718;28;20287;-63
2020/12/24 00:06:33;;;;;;;4.30;2.00;;;8.70;99.90;;;;;;4992257;28;20188;-65
2020/12/24 00:08:59;;;;;;;6.10;2.00;;;8.70;99.90;;;;;;4992378;28;20212;-63
2020/12/24 00:11:25;;;;;;;11.27;2.30;;;8.80;99.90;;;;;;4991731;28;20204;-64
2020/12/24 00:13:50;;;;;;;10.67;2.43;;;8.80;99.90;;;;;;4992138;28;20578;-63
2020/12/24 00:16:16;;;;;;;5.13;1.63;;;8.80;99.90;;;;;;4992204;28;20173;-64
2020/12/24 00:18:42;;;;;;;7.23;2.47;;;8.80;99.90;;;;;;4991113;28;20177;-65
2020/12/24 00:21:09;;;;;;;9.67;2.33;;;8.80;99.90;;;;;;4991928;28;20184;-64
2020/12/24 00:23:34;;;;;;;5.37;2.13;;;8.70;99.90;;;;;;4991783;28;20192;-64
2020/12/24 00:26:01;;;;;;;3.90;2.00;;;8.70;99.90;;;;;;4992713;28;20223;-64
2020/12/24 00:28:27;;;;;;;8.10;1.83;;;8.80;99.90;;;;;;4991628;28;20204;-64
2020/12/24 00:30:52;;;;;;;7.53;2.00;;;9.00;99.90;;;;;;4991877;28;20181;-64
2020/12/24 00:33:18;;;;;;;5.50;1.90;;;9.10;99.90;;;;;;4992082;28;20216;-64
2020/12/24 00:35:44;;;;;;;8.17;2.37;;;9.20;99.90;;;;;;4991668;28;20180;-63
2020/12/24 00:38:09;;;;;;;9.03;2.50;;;9.30;99.90;;;;;;4992285;28;20327;-63
2020/12/24 00:40:35;;;;;;;7.67;2.60;;;9.40;99.90;;;;;;4991690;28;20192;-64
2020/12/24 00:43:00;;;;;;;9.10;2.40;;;9.40;99.90;;;;;;4991301;28;20215;-65
2020/12/24 00:45:26;;;;;;;5.27;2.30;;;9.40;99.90;;;;;;4991565;28;20193;-63
2020/12/24 00:47:51;;;;;;;5.83;2.43;;;9.50;99.90;;;;;;4991892;28;20242;-63
2020/12/24 00:50:17;;;;;;;9.07;2.03;;;9.50;99.90;;;;;;4990734;28;20266;-63
2020/12/24 00:52:43;;;;;;;6.47;2.23;;;9.50;99.90;;;;;;4991693;28;20205;-65
2020/12/24 00:55:08;;;;;;;4.33;2.33;;;9.50;99.90;;;;;;4991572;28;20657;-63
2020/12/24 00:57:34;;;;;;;7.20;2.17;;;9.40;99.90;;;;;;4991620;28;20173;-63
2020/12/24 00:59:59;;;;;;;5.17;2.50;;;9.40;99.90;;;;;;4991443;28;20169;-63
2020/12/24 01:02:25;;;;;;;7.43;2.00;;;9.40;99.90;;;;;;4991199;28;20200;-64
2020/12/24 01:04:50;;;;;;;7.10;2.13;;;9.30;99.90;;;;;;4991792;28;20165;-61
2020/12/24 01:07:16;;;;;;;7.03;2.10;;;9.30;99.90;;;;;;4991298;28;20264;-63
2020/12/24 01:09:42;;;;;;;9.63;2.20;;;9.20;99.90;;;;;;4992293;28;20669;-63
2020/12/24 01:12:08;;;;;;;6.47;1.83;;;9.30;99.90;;;;;;4994880;28;20700;-63
2020/12/24 01:14:33;;;;;;;5.47;2.20;;;9.20;99.90;;;;;;4995445;28;20602;-64
2020/12/24 01:16:59;;;;;;;9.23;2.53;;;9.20;99.90;;;;;;4995324;28;20181;-63
2020/12/24 01:19:25;;;;;;;7.83;2.33;;;9.20;99.90;;;;;;4995486;28;20216;-63
2020/12/24 01:21:50;;;;;;;7.67;1.60;;;9.20;99.90;;;;;;4995054;28;20219;-63
2020/12/24 01:24:16;;;;;;;5.90;2.33;;;9.30;99.90;;;;;;4995139;28;20215;-63
2020/12/24 01:26:46;;;;;;;5.93;2.00;;;9.30;99.90;;;;;;4995468;28;20184;-63
2020/12/24 01:29:12;;;;;;;7.63;1.70;;;9.30;99.90;;;;;;4994899;28;20213;-65
2020/12/24 01:31:42;;;;;;;8.67;1.90;;;9.40;99.90;;;;;;4994875;28;20195;-64
2020/12/24 01:34:08;;;;;;;6.80;2.13;;;9.40;99.90;;;;;;4995214;28;20592;-64
2020/12/24 01:36:33;;;;;;;7.47;2.40;;;9.40;99.90;;;;;;4994960;28;20189;-63
2020/12/24 01:38:59;;;;;;;7.03;2.10;;;9.40;99.90;;;;;;4994787;28;20631;-63
2020/12/24 01:41:24;;;;;;;4.30;2.20;;;9.50;99.90;;;;;;4994705;28;20185;-64
2020/12/24 01:43:50;;;;;;;7.33;2.27;;;9.50;99.90;;;;;;4994694;28;20259;-64
2020/12/24 01:46:16;;;;;;;7.07;2.13;;;9.40;99.90;;;;;;4993794;28;20635;-63
2020/12/24 01:48:41;;;;;;;5.20;2.27;;;9.40;99.90;;;;;;4994742;28;20216;-63
2020/12/24 01:51:22;;;;;;;7.00;1.80;;;9.30;99.90;;;;;;4994687;28;20192;-66
2020/12/24 01:53:48;;;;;;;3.47;1.53;;;9.30;99.90;;;;;;4994801;28;20741;-63
2020/12/24 01:56:14;;;;;;;6.43;1.70;;;9.10;99.90;;;;;;4994899;28;20627;-64
2020/12/24 01:58:40;;;;;;;7.80;2.03;;;9.00;99.90;;;;;;4994466;28;20192;-63
2020/12/24 02:01:05;;;;;;;6.93;2.53;;;8.90;99.90;;;;;;4994301;28;20181;-63
2020/12/24 02:03:31;;;;;;;3.30;1.53;;;8.80;99.90;;;;;;4994871;28;20216;-63
2020/12/24 02:05:58;;;;;;;5.57;2.10;;;8.80;99.90;;;;;;4994411;28;20207;-63
2020/12/24 02:08:23;;;;;;;6.03;2.00;;;8.80;99.90;;;;;;4993234;28;20244;-64
2020/12/24 02:10:50;;;;;;;3.83;1.43;;;8.70;99.90;;;;;;4994408;28;20216;-64
2020/12/24 02:13:16;;;;;;;7.90;2.20;;;8.70;99.90;;;;;;4993601;28;20244;-63
2020/12/24 02:15:41;;;;;;;8.87;1.83;;;8.60;99.90;;;;;;4994852;28;20670;-64
2020/12/24 02:18:08;;;;;;;5.60;1.90;;;8.60;99.90;;;;;;4994387;28;20188;-64
2020/12/24 02:20:34;;;;;;;5.80;2.33;;;8.50;99.90;;;;;;4993865;28;20181;-64
2020/12/24 02:23:00;;;;;;;6.63;2.00;;;8.50;99.90;;;;;;4993849;28;20200;-64
2020/12/24 02:25:25;;;;;;;7.23;2.17;;;8.50;99.90;;;;;;4993934;28;20180;-64
2020/12/24 02:27:51;;;;;;;4.80;1.60;;;8.60;99.90;;;;;;4994038;28;20688;-65
2020/12/24 02:30:17;;;;;;;5.70;2.23;;;8.60;99.90;;;;;;4993968;28;20173;-64
2020/12/24 02:32:42;;;;;;;5.50;2.00;;;8.60;99.90;;;;;;4993936;28;20585;-64
2020/12/24 02:35:08;;;;;;;7.20;2.10;;;8.70;99.90;;;;;;4993833;28;20184;-64
2020/12/24 02:37:33;;;;;;;4.57;1.80;;;8.80;99.90;;;;;;4994294;28;20223;-64
2020/12/24 02:39:59;;;;;;;7.47;2.17;;;8.90;99.90;;;;;;4993732;28;20517;-63
2020/12/24 02:42:25;;;;;;;3.20;2.10;;;8.90;99.90;;;;;;4993867;28;20610;-64
2020/12/24 02:44:50;;;;;;;7.03;1.80;;;9.00;99.90;;;;;;4993748;28;20573;-64
2020/12/24 02:47:16;;;;;;;4.63;1.80;;;9.00;99.90;;;;;;4993805;28;20638;-64
2020/12/24 02:49:41;;;;;;;4.20;1.40;;;9.10;99.90;;;;;;4993630;28;20211;-64
2020/12/24 02:52:07;;;;;;;3.50;1.70;;;9.10;99.90;;;;;;4993481;28;20654;-63
2020/12/24 02:54:33;;;;;;;6.80;1.90;;;9.00;99.90;;;;;;4993607;28;20214;-64
2020/12/24 02:57:00;;;;;;;8.23;2.23;;;9.00;99.90;;;;;;4993914;28;20184;-64
2020/12/24 02:59:26;;;;;;;7.43;1.90;;;8.90;99.90;;;;;;4992768;28;20184;-64
2020/12/24 03:01:52;;;;;;;4.80;1.77;;;8.90;99.90;;;;;;4993257;28;20288;-63
2020/12/24 03:04:19;;;;;;;6.77;2.53;;;8.90;99.90;;;;;;4993654;28;20176;-64
2020/12/24 03:06:44;;;;;;;6.10;2.13;;;8.80;99.90;;;;;;4993124;28;20275;-64
2020/12/24 03:09:10;;;;;;;6.00;2.60;;;8.80;99.90;;;;;;4993334;28;20680;-64
2020/12/24 03:11:47;;;;;;;9.50;1.83;;;8.80;99.90;;;;;;4993026;28;20187;-64
2020/12/24 03:14:13;;;;;;;7.43;2.03;;;8.80;99.90;;;;;;5008287;28;20707;-64
2020/12/24 03:16:39;;;;;;;7.50;2.73;;;8.90;99.90;;;;;;4993585;28;20308;-64
2020/12/24 03:19:04;;;;;;;8.33;2.17;;;8.80;99.90;;;;;;4993011;28;20200;-66
2020/12/24 03:21:30;;;;;;;6.43;1.90;;;8.80;99.90;;;;;;4993003;28;20173;-64
2020/12/24 03:23:55;;;;;;;11.20;2.30;;;8.80;99.90;;;;;;4992905;28;20205;-63
2020/12/24 03:26:21;;;;;;;6.40;1.97;;;8.80;99.90;;;;;;4993236;28;20181;-63
2020/12/24 03:28:46;;;;;;;6.17;2.37;;;8.80;99.90;;;;;;4992849;28;20688;-64
2020/12/24 03:31:12;;;;;;;8.17;2.20;;;8.80;99.90;;;;;;4992430;28;20472;-63
2020/12/24 03:33:38;;;;;;;3.80;1.80;;;8.80;99.90;;;;;;4992997;28;20726;-63
2020/12/24 03:36:03;;;;;;;7.47;1.80;;;8.80;99.90;;;;;;4992945;28;20181;-63
2020/12/24 03:38:29;;;;;;;4.80;2.47;;;8.80;99.90;;;;;;4993080;28;20184;-63
2020/12/24 03:40:54;;;;;;;6.00;2.40;;;8.70;99.90;;;;;;4992460;28;20520;-64
2020/12/24 03:43:20;;;;;;;7.83;2.07;;;8.70;99.90;;;;;;4992668;28;20659;-63
2020/12/24 03:45:45;;;;;;;6.60;1.73;;;8.70;99.90;;;;;;4992744;28;20181;-63
2020/12/24 03:48:11;;;;;;;7.63;2.00;;;8.60;99.90;;;;;;4992570;28;20275;-64
2020/12/24 03:50:37;;;;;;;7.97;1.97;;;8.60;99.90;;;;;;5006341;28;20272;-63
2020/12/24 03:53:02;;;;;;;11.07;2.13;;;8.60;99.90;;;;;;4992444;28;20201;-63
2020/12/24 03:55:28;;;;;;;3.87;1.80;;;8.60;99.90;;;;;;4992274;28;20227;-63
2020/12/24 03:57:54;;;;;;;8.33;2.37;;;8.60;99.90;;;;;;4992657;28;20169;-64
2020/12/24 04:00:19;;;;;;;6.00;1.97;;;8.60;99.90;;;;;;4991766;28;20259;-63
2020/12/24 04:02:45;;;;;;;6.47;2.30;;;8.60;99.90;;;;;;4992554;28;20729;-63
2020/12/24 04:05:10;;;;;;;6.03;2.17;;;8.60;99.90;;;;;;4992239;28;20180;-63
2020/12/24 04:07:36;;;;;;;6.57;2.40;;;8.60;99.90;;;;;;4992097;28;20181;-64
2020/12/24 04:10:02;;;;;;;8.33;2.50;;;8.50;99.90;;;;;;4992302;28;20172;-63
2020/12/24 04:12:28;;;;;;;9.53;2.53;;;8.60;99.90;;;;;;4991921;28;20262;-64
2020/12/24 04:14:53;;;;;;;12.87;4.03;;;8.60;99.90;;;;;;4992475;28;20177;-63
2020/12/24 04:17:19;;;;;;;11.37;2.30;;;8.60;99.90;;;;;;4991869;28;20216;-63
2020/12/24 04:19:45;;;;;;;3.80;1.70;;;8.60;99.90;;;;;;4992379;28;20185;-63
2020/12/24 04:22:10;;;;;;;12.07;2.13;;;8.60;99.90;;;;;;4991768;28;20235;-64
2020/12/24 04:24:36;;;;;;;6.20;1.87;;;8.60;99.90;;;;;;4991888;28;20638;-63
2020/12/24 04:27:02;;;;;;;4.67;2.00;;;8.60;99.90;;;;;;4992340;28;20259;-63
2020/12/24 04:29:27;;;;;;;8.77;2.60;;;8.70;99.90;;;;;;4991647;28;20205;-63
2020/12/24 04:31:53;;;;;;;8.03;2.50;;;8.60;99.90;;;;;;4991591;28;20232;-64
2020/12/24 04:34:18;;;;;;;6.10;1.80;;;8.60;99.90;;;;;;4992037;28;20208;-63
2020/12/24 04:36:48;;;;;;;3.50;1.90;;;8.60;99.90;;;;;;4992075;28;20215;-64
2020/12/24 04:39:13;;;;;;;5.37;2.20;;;8.60;99.90;;;;;;4991653;28;20223;-63
2020/12/24 04:41:39;;;;;;;6.37;2.23;;;8.60;99.90;;;;;;4991742;28;20208;-64
2020/12/24 04:44:04;;;;;;;6.67;2.27;;;8.60;99.90;;;;;;4991863;28;20200;-63
2020/12/24 04:46:32;;;;;;;7.53;2.07;;;8.50;99.90;;;;;;4995827;28;20177;-63
2020/12/24 04:48:58;;;;;;;8.17;2.00;;;8.60;99.90;;;;;;4995629;28;20212;-63
2020/12/24 04:51:25;;;;;;;7.00;2.50;;;8.50;99.90;;;;;;4995357;28;20181;-63
2020/12/24 04:53:50;;;;;;;6.37;2.17;;;8.50;99.90;;;;;;4995827;28;20201;-63
2020/12/24 04:56:16;;;;;;;5.67;2.00;;;8.50;99.90;;;;;;4994622;28;20182;-63
2020/12/24 04:58:43;;;;;;;6.57;2.27;;;8.60;99.90;;;;;;4995727;28;20180;-64
2020/12/24 05:01:14;;;;;;;6.20;2.20;;;8.60;99.90;;;;;;4995608;28;20187;-63
2020/12/24 05:03:40;;;;;;;6.83;1.90;;;8.60;99.90;;;;;;4994591;28;20200;-63
2020/12/24 05:06:11;;;;;;;4.27;1.60;;;8.60;99.90;;;;;;4995572;28;20520;-64
2020/12/24 05:08:37;;;;;;;4.33;1.90;;;8.60;99.90;;;;;;4995762;28;20275;-63
2020/12/24 05:11:04;;;;;;;7.30;2.00;;;8.60;99.90;;;;;;4995475;28;20263;-63
2020/12/24 05:13:30;;;;;;;3.07;1.63;;;8.60;99.90;;;;;;5101840;22;20230;-65
2020/12/24 05:15:56;;;;;;;10.97;2.13;;;8.60;99.90;;;;;;5035134;28;20168;-65
2020/12/24 05:18:22;;;;;;;5.13;1.80;;;8.60;99.90;;;;;;5034811;28;20182;-64
2020/12/24 05:20:48;;;;;;;5.90;2.10;;;8.60;99.90;;;;;;5034510;28;20215;-65
2020/12/24 05:23:19;;;;;;;5.80;1.83;;;8.60;99.90;;;;;;5034515;28;20194;-65
2020/12/24 05:25:47;;;;;;;6.63;1.70;;;8.60;99.90;;;;;;5035021;28;20176;-65
2020/12/24 05:28:26;;;;;;;7.27;2.03;;;8.70;99.90;;;;;;5034480;28;20226;-65
2020/12/24 05:30:52;;;;;;;5.57;2.43;;;8.70;99.90;;;;;;5034337;28;20167;-65
2020/12/24 05:33:51;;;;;;;5.87;1.73;;;8.70;99.90;;;;;;5034180;28;20755;-65
2020/12/24 05:36:21;;;;;;;8.40;2.10;;;8.60;99.90;;;;;;5034047;28;20238;-65
2020/12/24 05:38:49;;;;;;;7.90;2.40;;;8.40;99.90;;;;;;5034894;28;20175;-65
2020/12/24 05:41:33;;;;;;;7.50;2.20;;;8.20;99.90;;;;;;5033945;28;20176;-65
2020/12/24 05:44:03;;;;;;;6.57;1.80;;;8.10;99.90;;;;;;5034125;28;20205;-65
2020/12/24 05:46:38;;;;;;;7.73;2.10;;;8.00;99.90;;;;;;5034459;28;20642;-65
2020/12/24 05:49:09;;;;;;;4.10;1.70;;;8.00;99.90;;;;;;5033923;28;20205;-65
2020/12/24 05:51:35;;;;;;;3.53;1.70;;;8.00;99.90;;;;;;5032958;28;20174;-65
2020/12/24 05:54:00;;;;;;;6.13;2.33;;;7.90;99.90;;;;;;5033960;28;20673;-64
2020/12/24 05:56:26;;;;;;;8.20;2.00;;;7.90;99.90;;;;;;5032795;28;20259;-65
2020/12/24 05:58:53;;;;;;;8.30;2.23;;;7.90;99.90;;;;;;5033154;28;20186;-65
2020/12/24 06:01:20;;;;;;;8.53;2.10;;;7.90;99.90;;;;;;5033744;28;20239;-64
2020/12/24 06:04:03;;;;;;;4.33;1.90;;;7.90;99.90;;;;;;5033935;28;20196;-65
2020/12/24 06:06:47;;;;;;;2.93;1.50;;;7.80;99.90;;;;;;5034133;28;20202;-65
2020/12/24 06:09:15;;;;;;;3.27;1.80;;;7.80;99.90;;;;;;5014037;28;20654;-66
2020/12/24 06:11:51;;;;;;;5.80;1.97;;;7.70;99.90;;;;;;5014922;28;20175;-64
2020/12/24 06:14:26;;;;;;;5.13;2.10;;;7.60;99.90;;;;;;5033649;28;20256;-65
2020/12/24 06:16:54;;;;;;;4.90;2.40;;;7.60;99.90;;;;;;5033746;28;20540;-65
2020/12/24 06:19:21;;;;;;;6.37;1.80;;;7.60;99.90;;;;;;5033503;28;20219;-65
2020/12/24 06:21:47;;;;;;;8.67;2.07;;;7.70;99.90;;;;;;5033680;28;20255;-65
2020/12/24 06:24:13;;;;;;;3.83;2.13;;;7.70;99.90;;;;;;5033606;28;20227;-65
2020/12/24 06:26:46;;;;;;;5.63;1.87;;;7.70;99.90;;;;;;5033979;28;20645;-65
2020/12/24 06:29:14;;;;;;;9.63;2.27;;;7.80;99.90;;;;;;5033292;28;20241;-65
2020/12/24 06:31:41;;;;;;;4.30;2.10;;;7.80;99.90;;;;;;5032862;28;20198;-65
2020/12/24 06:34:28;;;;;;;3.00;1.80;;;7.80;99.90;;;;;;5033192;28;20683;-65
2020/12/24 06:36:54;;;;;;;6.80;1.70;;;7.90;99.90;;;;;;5033534;28;20167;-65
2020/12/24 06:39:44;;;;;;;10.17;3.50;;;7.90;99.90;;;;;;5033401;28;20262;-65
2020/12/24 06:42:35;;;;;;;4.83;2.43;;;7.90;99.90;;;;;;5030686;28;20183;-65
2020/12/24 06:45:02;;;;;;;4.37;1.90;;;7.90;99.90;;;;;;5018031;28;20191;-65
2020/12/24 06:47:28;;;;;;;4.70;2.20;;;7.90;99.90;;;;;;5033001;28;20186;-65
2020/12/24 06:49:54;;;;;;;13.70;5.07;;;8.00;99.90;;;;;;5032051;28;20212;-65
2020/12/24 06:52:30;;;;;;;5.07;1.67;;;7.90;99.90;;;;;;5033676;28;20230;-63
2020/12/24 06:55:15;;;;;;;3.53;2.20;;;8.00;99.90;;;;;;5033273;28;20539;-64
2020/12/24 06:57:44;;;;;;;3.87;2.00;;;8.00;99.90;;;;;;5032477;28;20190;-65
2020/12/24 07:00:23;;;;;;;4.40;1.80;;;8.00;99.90;;;;;;5032453;28;20237;-64
2020/12/24 07:02:50;;;;;;;2.67;1.90;;;8.00;99.90;;;;;;5032546;28;20564;-64
2020/12/24 07:05:41;;;;;;;5.07;2.17;;;8.00;99.90;;;;;;5032697;28;20174;-64
2020/12/24 07:08:30;;;;;;;5.00;2.07;;;8.00;99.90;;;;;;5032189;28;20245;-64
2020/12/24 07:10:55;;;;;;;4.23;1.90;;;8.10;99.90;;;;;;5024536;28;20657;-64
2020/12/24 07:13:35;;;;;;;3.47;1.50;;;8.10;99.90;;;;;;5032169;28;20207;-64
2020/12/24 07:16:02;;;;;;;1.47;1.30;;;8.10;99.90;;;;;;5032672;28;20172;-64
2020/12/24 07:18:40;;;;;;;3.40;1.80;;;8.20;99.90;;;;;;5032114;28;20184;-64
2020/12/24 07:21:08;;;;;;;3.03;1.70;;;8.10;99.90;;;;;;5032312;28;20187;-64
2020/12/24 07:23:40;;;;;;;4.67;1.80;;;8.10;99.90;;;;;;5032205;28;20203;-64
2020/12/24 07:26:08;;;;;;;3.80;1.80;;;8.20;99.90;;;;;;5032327;28;20179;-64
2020/12/24 07:28:38;;;;;;;3.47;1.67;;;8.20;99.90;;;;;;5031952;28;20222;-64
2020/12/24 07:31:05;;;;;;;5.50;2.03;;;8.20;99.90;;;;;;5032049;28;20275;-64
2020/12/24 07:33:31;;;;;;;3.93;1.70;;;8.20;99.90;;;;;;5031825;28;20210;-64
2020/12/24 07:35:57;;;;;;;4.90;1.50;;;8.20;99.90;;;;;;5032330;28;20180;-64
2020/12/24 07:38:25;;;;;;;3.43;1.47;;;8.20;99.90;;;;;;5031294;28;20186;-63
2020/12/24 07:40:51;;;;;;;5.30;2.00;;;8.20;99.90;;;;;;5031425;28;20180;-64
2020/12/24 07:43:17;;;;;;;4.17;2.00;;;8.20;99.90;;;;;;5031899;28;20221;-63
2020/12/24 07:45:44;;;;;;;4.80;1.70;;;8.30;99.90;;;;;;5031674;28;20804;-64
2020/12/24 07:48:14;;;;;;;3.50;1.83;;;8.30;99.90;;;;;;5031705;28;20208;-63
2020/12/24 07:50:41;;;;;;;3.13;1.47;;;8.30;99.90;;;;;;5030943;28;20222;-64
2020/12/24 07:53:10;;;;;;;2.17;1.47;;;8.20;99.90;;;;;;5031856;28;20235;-64
2020/12/24 07:55:37;;;;;;;2.80;1.90;;;8.20;99.90;;;;;;5031724;28;20268;-64
2020/12/24 07:58:06;;;;;;;3.07;2.50;;;8.30;99.90;;;;;;5032115;28;20274;-64
2020/12/24 08:00:39;;;;;;;5.90;3.00;;;8.20;99.90;;;;;;5031219;28;20179;-64
2020/12/24 08:03:05;;;;;;;4.43;1.90;;;8.20;99.90;;;;;;5031758;28;20254;-64
2020/12/24 08:05:30;;;;;;;3.23;1.60;;;8.20;99.90;;;;;;5031197;28;20191;-64
2020/12/24 08:07:56;;;;;;;2.77;1.83;;;8.20;99.90;;;;;;5031767;28;20207;-64
2020/12/24 08:10:21;;;;;;;3.73;2.00;;;8.20;99.90;;;;;;5029964;28;20179;-64
2020/12/24 08:12:47;;;;;;;3.97;2.37;;;8.20;99.90;;;;;;5031409;28;20264;-64
2020/12/24 08:15:16;;;;;;;4.33;2.47;;;8.20;99.90;;;;;;5031624;28;20210;-64
2020/12/24 08:17:51;;;;;;;5.67;2.47;;;8.20;99.90;;;;;;5031344;28;20214;-64
2020/12/24 08:20:19;;;;;;;3.47;2.13;;;8.20;99.90;;;;;;5030585;28;20222;-64
2020/12/24 08:23:03;;;;;;;3.87;2.10;;;8.20;99.90;;;;;;5031331;28;20807;-64
2020/12/24 08:25:29;;;;;;;6.20;2.07;;;8.20;99.90;;;;;;5031164;28;20167;-64
2020/12/24 08:27:56;;;;;;;7.60;2.93;;;8.20;99.90;;;;;;5031366;28;20961;-64
2020/12/24 08:30:23;;;;;;;4.17;2.20;;;8.30;99.90;;;;;;5031059;28;20581;-64
2020/12/24 08:32:48;;;;;;;4.90;1.83;;;8.30;99.90;;;;;;5031092;28;20198;-64
2020/12/24 08:35:15;;;;;;;4.77;1.80;;;8.40;99.90;;;;;;5031235;28;20541;-64
2020/12/24 08:37:41;;;;;;;3.23;2.10;;;8.40;99.90;;;;;;5030906;28;20183;-64
2020/12/24 08:40:24;;;;;;;4.30;2.03;;;8.50;99.90;;;;;;5031086;28;20171;-64
2020/12/24 08:42:57;;;;;;;3.43;1.60;;;8.50;99.90;;;;;;5031223;28;20222;-64
2020/12/24 08:45:23;;;;;;;3.47;1.67;;;8.60;99.90;;;;;;5031406;28;20178;-64
2020/12/24 08:47:48;;;;;;;3.90;2.60;;;8.70;99.90;;;;;;5030469;28;20250;-64
2020/12/24 08:50:14;;;;;;;5.53;2.20;;;8.60;99.90;;;;;;5030792;28;20213;-64
2020/12/24 08:52:43;;;;;;;5.67;2.37;;;8.60;99.90;;;;;;5031325;28;20203;-64
2020/12/24 08:55:09;;;;;;;2.40;1.87;;;8.50;99.90;;;;;;5031174;28;20172;-64
2020/12/24 08:57:36;;;;;;;2.70;2.20;;;8.50;99.90;;;;;;5030458;28;20222;-64
2020/12/24 09:00:07;;;;;;;4.83;2.20;;;8.40;99.90;;;;;;5031080;28;20172;-63
2020/12/24 09:02:35;;;;;;;6.67;2.20;;;8.30;99.90;;;;;;5031334;28;20199;-64
2020/12/24 09:05:04;;;;;;;4.73;2.00;;;8.30;99.90;;;;;;5031420;28;20176;-64
2020/12/24 09:07:40;;;;;;;5.47;2.53;;;8.20;99.90;;;;;;5030835;28;20318;-64
2020/12/24 09:10:10;;;;;;;5.57;1.80;;;8.20;99.90;;;;;;5030983;28;20465;-64
2020/12/24 09:12:38;;;;;;;6.23;2.93;;;8.20;99.90;;;;;;5030815;28;20589;-64
2020/12/24 09:15:09;;;;;;;3.20;2.90;;;8.00;99.90;;;;;;5031022;28;20190;-64
2020/12/24 09:17:35;;;;;;;3.43;2.20;;;7.70;99.90;;;;;;5031383;28;20225;-64
2020/12/24 09:20:05;;;;;;;2.67;2.47;;;7.20;99.90;;;;;;5030470;28;20172;-64
2020/12/24 09:22:31;;;;;;;2.37;2.17;;;6.90;99.90;;;;;;5030740;28;20286;-63
2020/12/24 09:24:56;;;;;;;3.43;2.77;;;6.70;99.90;;;;;;5030599;28;20255;-64
2020/12/24 09:27:22;;;;;;;3.07;2.77;;;6.60;99.90;;;;;;5030265;28;20192;-63
2020/12/24 09:29:48;;;;;;;4.27;2.70;;;6.50;99.90;;;;;;5030586;28;20254;-63
2020/12/24 09:32:13;;;;;;;3.50;3.20;;;6.50;99.90;;;;;;5033448;28;20168;-64
2020/12/24 09:34:39;;;;;;;3.30;3.00;;;6.40;99.90;;;;;;5034360;28;20183;-63
2020/12/24 09:37:05;;;;;;;4.17;3.73;;;6.30;99.90;;;;;;5034847;28;20202;-63
2020/12/24 09:39:30;;;;;;;3.60;3.30;;;6.30;99.90;;;;;;5034007;28;20246;-64
2020/12/24 09:41:56;;;;;;;4.70;3.77;;;6.20;99.90;;;;;;5021072;28;20207;-63
2020/12/24 09:44:22;;;;;;;3.93;3.47;;;6.20;99.90;;;;;;5014950;28;20552;-64
2020/12/24 09:46:48;;;;;;;3.63;3.33;;;6.10;99.90;;;;;;5034720;28;20175;-64
2020/12/24 09:49:14;;;;;;;3.43;3.13;;;6.10;99.90;;;;;;5034612;28;20199;-64
2020/12/24 09:51:40;;;;;;;3.20;2.90;;;6.10;99.90;;;;;;5033637;28;20179;-63
2020/12/24 09:54:06;;;;;;;2.83;2.63;;;6.10;99.90;;;;;;5034868;28;20631;-64
2020/12/24 09:56:32;;;;;;;2.70;2.50;;;6.00;99.90;;;;;;5033924;28;20663;-64
2020/12/24 09:58:58;;;;;;;3.73;2.90;;;5.90;99.90;;;;;;5032224;28;20262;-64
2020/12/24 10:01:24;;;;;;;2.93;2.70;;;5.90;99.90;;;;;;5032862;28;20183;-63
2020/12/24 10:03:50;;;;;;;2.70;2.50;;;5.90;99.90;;;;;;5033468;28;20203;-64
2020/12/24 10:06:15;;;;;;;3.60;2.70;;;5.90;99.90;;;;;;5034067;28;20179;-64
2020/12/24 10:08:41;;;;;;;2.60;2.40;;;5.90;99.90;;;;;;5033732;28;20203;-64
2020/12/24 10:11:16;;;;;;;3.17;2.87;;;5.90;99.90;;;;;;5033922;28;20175;-64
2020/12/24 10:13:42;;;;;;;2.33;2.23;;;6.00;99.90;;;;;;5033469;28;20289;-64
2020/12/24 10:16:08;;;;;;;2.20;2.00;;;6.00;99.90;;;;;;5033533;28;20233;-64
2020/12/24 10:18:34;;;;;;;2.17;1.97;;;6.00;99.90;;;;;;5033392;28;20187;-64
2020/12/24 10:21:00;;;;;;;1.93;1.70;;;6.00;99.90;;;;;;5033585;28;20182;-64
2020/12/24 10:23:26;;;;;;;1.60;1.50;;;6.00;99.90;;;;;;5033135;28;20245;-64
2020/12/24 10:25:52;;;;;;;1.20;1.20;;;6.00;99.90;;;;;;5033686;28;20688;-64
2020/12/24 10:28:18;;;;;;;1.27;1.23;;;5.90;99.90;;;;;;5033073;28;20558;-64
2020/12/24 10:30:44;;;;;;;1.10;1.10;;;5.90;99.90;;;;;;5033388;28;20226;-64
2020/12/24 10:33:10;;;;;;;1.20;1.20;;;5.90;99.90;;;;;;5033492;28;20253;-64
2020/12/24 10:35:36;;;;;;;2.20;1.10;;;5.90;99.90;;;;;;5034749;28;20187;-64
2020/12/24 10:38:05;;;;;;;1.20;1.20;;;5.90;99.90;;;;;;5033362;28;20175;-65
2020/12/24 10:40:31;;;;;;;1.20;1.20;;;5.90;99.90;;;;;;5032980;28;20187;-64
2020/12/24 10:42:59;;;;;;;1.40;1.30;;;5.90;99.90;;;;;;5032609;28;20290;-64
2020/12/24 10:45:26;;;;;;;1.63;1.30;;;6.00;99.90;;;;;;5033366;28;20183;-64
2020/12/24 10:47:52;;;;;;;1.23;1.13;;;6.10;99.90;;;;;;5032765;28;20187;-64
2020/12/24 10:50:19;;;;;;;1.10;1.10;;;6.20;99.90;;;;;;5032835;28;20229;-64
2020/12/24 10:52:45;;;;;;;1.10;1.10;;;6.20;99.90;;;;;;5032720;28;20195;-64
2020/12/24 10:55:11;;;;;;;2.30;1.30;;;6.20;99.90;;;;;;5031655;28;20274;-64
2020/12/24 10:57:37;;;;;;;1.50;1.40;;;6.20;99.90;;;;;;5033896;28;20570;-64
2020/12/24 11:00:07;;;;;;;1.50;1.40;;;6.10;99.90;;;;;;5034129;28;20561;-63
2020/12/24 11:02:32;;;;;;;4.43;1.43;;;6.20;99.90;;;;;;5032743;28;20214;-63
2020/12/24 11:04:58;;;;;;;2.40;1.40;;;6.20;99.90;;;;;;5033312;28;20704;-64
2020/12/24 11:07:24;;;;;;;1.47;1.37;;;6.20;99.90;;;;;;5031361;28;20687;-64
2020/12/24 11:09:49;;;;;;;1.40;1.33;;;6.30;99.90;;;;;;5030367;28;20218;-64
2020/12/24 11:12:15;;;;;;;1.40;1.30;;;6.20;99.90;;;;;;5032145;28;20217;-64
2020/12/24 11:14:41;;;;;;;1.30;1.30;;;6.20;99.90;;;;;;5055958;22;20223;-63
2020/12/24 11:17:06;;;;;;;1.50;1.40;;;6.30;99.90;;;;;;5032014;28;20175;-62
2020/12/24 11:19:32;;;;;;;1.70;1.60;;;6.30;99.90;;;;;;5031986;28;20194;-63
2020/12/24 11:21:57;;;;;;;1.53;1.43;;;6.30;99.90;;;;;;5032188;28;20259;-64
2020/12/24 11:24:23;;;;;;;1.60;1.50;;;6.30;99.90;;;;;;5031824;28;20261;-63
2020/12/24 11:26:49;;;;;;;1.97;1.87;;;6.30;99.90;;;;;;5032291;28;20176;-62
2020/12/24 11:29:14;;;;;;;2.50;2.30;;;6.30;99.90;;;;;;5032086;28;20203;-63
2020/12/24 11:31:40;;;;;;;2.30;2.10;;;6.20;99.90;;;;;;5032277;28;20233;-63
2020/12/24 11:34:06;;;;;;;2.60;2.40;;;6.20;99.90;;;;;;5032111;28;20195;-64
2020/12/24 11:36:33;;;;;;;2.80;2.60;;;6.20;99.90;;;;;;5031951;28;20175;-62
2020/12/24 11:38:59;;;;;;;2.50;2.30;;;6.10;99.90;;;;;;5032058;28;20289;-63
2020/12/24 11:41:27;;;;;;;4.23;3.10;;;6.10;99.90;;;;;;5031015;28;20175;-63
2020/12/24 11:43:54;;;;;;;9.70;6.40;;;6.00;99.90;;;;;;5031708;28;20222;-63
2020/12/24 11:46:23;;;;;;;10.50;8.13;;;5.90;99.90;;;;;;5030316;28;20187;-63
2020/12/24 11:48:49;;;;;;;11.67;8.97;;;5.90;99.90;;;;;;5031221;28;20203;-62
2020/12/24 11:51:16;;;;;;;14.27;9.47;;;5.90;99.90;;;;;;5030549;28;20167;-63
2020/12/24 11:53:42;;;;;;;11.73;9.23;;;5.80;99.90;;;;;;5030113;28;20222;-63
2020/12/24 11:56:16;;;;;;;14.03;9.83;;;5.80;99.90;;;;;;5030952;28;20260;-63
2020/12/24 11:58:43;;;;;;;14.67;9.87;;;5.70;99.90;;;;;;5031675;28;20682;-61
2020/12/24 12:01:11;;;;;;;11.70;9.13;;;5.60;99.90;;;;;;5031410;28;20168;-64
2020/12/24 12:03:37;;;;;;;14.13;9.60;;;5.60;99.90;;;;;;5031444;28;20746;-66
2020/12/24 12:06:04;;;;;;;14.90;9.23;;;5.60;99.90;;;;;;5031791;28;20176;-64
2020/12/24 12:08:30;;;;;;;18.60;10.40;;;5.50;99.90;;;;;;5031379;28;20207;-62
2020/12/24 12:10:57;;;;;;;17.03;10.43;;;5.60;99.90;;;;;;5020715;28;20176;-64
2020/12/24 12:13:23;;;;;;;12.37;9.00;;;5.50;99.90;;;;;;5031075;28;20564;-64
2020/12/24 12:15:48;;;;;;;17.23;9.53;;;5.60;99.90;;;;;;5030933;28;20183;-63
2020/12/24 12:18:14;;;;;;;12.03;8.37;;;5.60;99.90;;;;;;5031260;28;20209;-63
2020/12/24 12:20:41;;;;;;;11.60;8.40;;;5.60;99.90;;;;;;5030176;28;20237;-64
2020/12/24 12:23:07;;;;;;;9.33;7.57;;;5.50;99.90;;;;;;5031390;28;20183;-63
2020/12/24 12:25:32;;;;;;;7.30;5.57;;;5.50;99.90;;;;;;5031443;28;20182;-64
2020/12/24 12:27:58;;;;;;;6.60;5.43;;;5.40;99.90;;;;;;5031302;28;20593;-63
2020/12/24 12:30:23;;;;;;;5.77;4.97;;;5.40;99.90;;;;;;5031006;28;20163;-63
2020/12/24 12:32:49;;;;;;;5.20;3.80;;;5.40;99.90;;;;;;5030862;28;20676;-63
2020/12/24 12:35:15;;;;;;;5.57;4.20;;;5.40;99.90;;;;;;5031315;28;20163;-62
2020/12/24 12:37:40;;;;;;;4.40;4.00;;;5.40;99.90;;;;;;5031342;28;20598;-63
2020/12/24 12:40:07;;;;;;;3.90;3.50;;;5.30;99.90;;;;;;5031133;28;20176;-63
2020/12/24 12:42:33;;;;;;;4.10;3.63;;;5.30;99.90;;;;;;5031218;28;20179;-63
2020/12/24 12:44:59;;;;;;;4.73;3.63;;;5.40;99.90;;;;;;5031445;28;20167;-63
2020/12/24 12:47:24;;;;;;;4.87;3.90;;;5.40;99.90;;;;;;5031030;28;20194;-62
2020/12/24 12:49:51;;;;;;;4.07;3.67;;;5.20;99.90;;;;;;5030974;28;20195;-65
2020/12/24 12:52:17;;;;;;;5.53;3.97;;;5.40;99.90;;;;;;5029741;28;20172;-64
2020/12/24 12:54:44;;;;;;;3.20;2.90;;;5.40;99.90;;;;;;5031161;28;20191;-63
2020/12/24 12:57:10;;;;;;;4.97;3.70;;;5.40;99.90;;;;;;5029933;28;20618;-64